sensor_id;sensor_type;location;lat;lon;timestamp;P1;durP1;ratioP1;P2;durP2;ratioP2
17214;SDS011;8723;51.502;6.918;2022-10-18T00:00:15;6.53;;;4.20;;
17214;SDS011;8723;51.502;6.918;2022-10-18T00:02:43;6.78;;;4.50;;
17214;SDS011;8723;51.502;6.918;2022-10-18T00:05:11;5.00;;;4.27;;
17214;SDS011;8723;51.502;6.918;2022-10-18T00:07:38;7.03;;;4.43;;
17214;SDS011;8723;51.502;6.918;2022-10-18T00:10:05;7.90;;;4.63;;
17214;SDS011;8723;51.502;6.918;2022-10-18T00:12:33;5.07;;;4.30;;
17214;SDS011;8723;51.502;6.918;2022-10-18T00:15:00;5.03;;;4.53;;
17214;SDS011;8723;51.502;6.918;2022-10-18T00:17:28;4.80;;;4.28;;
17214;SDS011;8723;51.502;6.918;2022-10-18T00:19:56;5.65;;;4.43;;
17214;SDS011;8723;51.502;6.918;2022-10-18T00:22:23;5.97;;;4.63;;
17214;SDS011;8723;51.502;6.918;2022-10-18T00:24:50;5.70;;;4.13;;
17214;SDS011;8723;51.502;6.918;2022-10-18T00:27:18;4.97;;;3.80;;
17214;SDS011;8723;51.502;6.918;2022-10-18T00:29:45;10.23;;;4.30;;
17214;SDS011;8723;51.502;6.918;2022-10-18T00:32:12;5.47;;;4.03;;
17214;SDS011;8723;51.502;6.918;2022-10-18T00:34:39;6.33;;;3.90;;
17214;SDS011;8723;51.502;6.918;2022-10-18T00:37:07;6.90;;;4.07;;
17214;SDS011;8723;51.502;6.918;2022-10-18T00:39:35;5.97;;;4.32;;
17214;SDS011;8723;51.502;6.918;2022-10-18T00:42:02;5.47;;;4.43;;
17214;SDS011;8723;51.502;6.918;2022-10-18T00:47:15;6.38;;;3.95;;
17214;SDS011;8723;51.502;6.918;2022-10-18T00:49:44;7.00;;;4.30;;
17214;SDS011;8723;51.502;6.918;2022-10-18T00:52:14;6.00;;;4.22;;
17214;SDS011;8723;51.502;6.918;2022-10-18T00:54:43;5.63;;;3.88;;
17214;SDS011;8723;51.502;6.918;2022-10-18T00:57:10;5.22;;;3.90;;
17214;SDS011;8723;51.502;6.918;2022-10-18T00:59:38;5.40;;;4.05;;
17214;SDS011;8723;51.502;6.918;2022-10-18T01:02:06;7.40;;;3.75;;
17214;SDS011;8723;51.502;6.918;2022-10-18T01:04:33;7.60;;;4.15;;
17214;SDS011;8723;51.502;6.918;2022-10-18T01:07:03;5.63;;;3.97;;
17214;SDS011;8723;51.502;6.918;2022-10-18T01:09:35;6.43;;;4.00;;
17214;SDS011;8723;51.502;6.918;2022-10-18T01:12:08;4.75;;;3.83;;
17214;SDS011;8723;51.502;6.918;2022-10-18T01:14:41;4.78;;;3.92;;
17214;SDS011;8723;51.502;6.918;2022-10-18T01:17:12;4.40;;;3.55;;
17214;SDS011;8723;51.502;6.918;2022-10-18T01:19:48;6.32;;;3.80;;
17214;SDS011;8723;51.502;6.918;2022-10-18T01:22:20;4.50;;;3.60;;
17214;SDS011;8723;51.502;6.918;2022-10-18T01:24:54;6.55;;;3.67;;
17214;SDS011;8723;51.502;6.918;2022-10-18T01:30:28;4.50;;;3.67;;
17214;SDS011;8723;51.502;6.918;2022-10-18T01:32:59;6.72;;;3.90;;
17214;SDS011;8723;51.502;6.918;2022-10-18T01:35:29;7.43;;;3.90;;
17214;SDS011;8723;51.502;6.918;2022-10-18T01:37:58;4.72;;;3.65;;
17214;SDS011;8723;51.502;6.918;2022-10-18T01:40:26;6.40;;;3.67;;
17214;SDS011;8723;51.502;6.918;2022-10-18T01:42:54;9.48;;;3.85;;
17214;SDS011;8723;51.502;6.918;2022-10-18T01:45:21;7.10;;;4.03;;
17214;SDS011;8723;51.502;6.918;2022-10-18T01:47:51;6.50;;;4.07;;
17214;SDS011;8723;51.502;6.918;2022-10-18T01:50:26;10.63;;;4.10;;
17214;SDS011;8723;51.502;6.918;2022-10-18T01:52:54;7.68;;;4.10;;
17214;SDS011;8723;51.502;6.918;2022-10-18T01:55:22;8.52;;;4.53;;
17214;SDS011;8723;51.502;6.918;2022-10-18T01:57:52;8.67;;;4.43;;
17214;SDS011;8723;51.502;6.918;2022-10-18T02:00:23;6.63;;;4.50;;
17214;SDS011;8723;51.502;6.918;2022-10-18T02:02:55;5.03;;;4.30;;
17214;SDS011;8723;51.502;6.918;2022-10-18T02:05:25;5.43;;;4.30;;
17214;SDS011;8723;51.502;6.918;2022-10-18T02:07:55;5.70;;;4.38;;
17214;SDS011;8723;51.502;6.918;2022-10-18T02:10:27;8.85;;;4.80;;
17214;SDS011;8723;51.502;6.918;2022-10-18T02:12:55;8.93;;;4.78;;
17214;SDS011;8723;51.502;6.918;2022-10-18T02:15:25;6.60;;;4.32;;
17214;SDS011;8723;51.502;6.918;2022-10-18T02:17:56;7.38;;;4.05;;
17214;SDS011;8723;51.502;6.918;2022-10-18T02:20:23;8.52;;;4.50;;
17214;SDS011;8723;51.502;6.918;2022-10-18T02:22:52;6.43;;;4.20;;
17214;SDS011;8723;51.502;6.918;2022-10-18T02:25:21;6.72;;;4.03;;
17214;SDS011;8723;51.502;6.918;2022-10-18T02:27:50;5.70;;;4.07;;
17214;SDS011;8723;51.502;6.918;2022-10-18T02:30:17;5.70;;;4.10;;
17214;SDS011;8723;51.502;6.918;2022-10-18T02:32:45;10.77;;;4.72;;
17214;SDS011;8723;51.502;6.918;2022-10-18T02:35:16;7.20;;;4.07;;
17214;SDS011;8723;51.502;6.918;2022-10-18T02:37:46;6.95;;;4.72;;
17214;SDS011;8723;51.502;6.918;2022-10-18T02:40:15;9.40;;;4.95;;
17214;SDS011;8723;51.502;6.918;2022-10-18T02:42:43;9.05;;;4.43;;
17214;SDS011;8723;51.502;6.918;2022-10-18T02:45:10;5.30;;;4.25;;
17214;SDS011;8723;51.502;6.918;2022-10-18T02:47:39;5.15;;;4.50;;
17214;SDS011;8723;51.502;6.918;2022-10-18T02:50:06;7.28;;;4.35;;
17214;SDS011;8723;51.502;6.918;2022-10-18T02:52:35;6.87;;;4.60;;
17214;SDS011;8723;51.502;6.918;2022-10-18T02:55:02;6.22;;;4.45;;
17214;SDS011;8723;51.502;6.918;2022-10-18T02:57:29;5.55;;;3.83;;
17214;SDS011;8723;51.502;6.918;2022-10-18T02:59:56;8.02;;;4.28;;
17214;SDS011;8723;51.502;6.918;2022-10-18T03:02:23;6.87;;;4.50;;
17214;SDS011;8723;51.502;6.918;2022-10-18T03:04:51;6.90;;;4.43;;
17214;SDS011;8723;51.502;6.918;2022-10-18T03:07:18;6.47;;;4.25;;
17214;SDS011;8723;51.502;6.918;2022-10-18T03:09:46;5.20;;;4.38;;
17214;SDS011;8723;51.502;6.918;2022-10-18T03:12:13;6.43;;;4.07;;
17214;SDS011;8723;51.502;6.918;2022-10-18T03:14:41;4.67;;;3.87;;
17214;SDS011;8723;51.502;6.918;2022-10-18T03:17:08;5.97;;;4.47;;
17214;SDS011;8723;51.502;6.918;2022-10-18T03:19:35;7.43;;;4.53;;
17214;SDS011;8723;51.502;6.918;2022-10-18T03:22:03;4.83;;;4.17;;
17214;SDS011;8723;51.502;6.918;2022-10-18T03:24:30;7.13;;;4.57;;
17214;SDS011;8723;51.502;6.918;2022-10-18T03:26:59;6.60;;;4.72;;
17214;SDS011;8723;51.502;6.918;2022-10-18T03:29:26;9.10;;;4.28;;
17214;SDS011;8723;51.502;6.918;2022-10-18T03:31:53;10.52;;;4.78;;
17214;SDS011;8723;51.502;6.918;2022-10-18T03:34:20;8.75;;;4.70;;
17214;SDS011;8723;51.502;6.918;2022-10-18T03:36:47;7.00;;;4.40;;
17214;SDS011;8723;51.502;6.918;2022-10-18T03:39:14;5.88;;;4.45;;
17214;SDS011;8723;51.502;6.918;2022-10-18T03:41:41;10.25;;;4.57;;
17214;SDS011;8723;51.502;6.918;2022-10-18T03:44:10;6.80;;;4.93;;
17214;SDS011;8723;51.502;6.918;2022-10-18T03:46:37;7.30;;;4.30;;
17214;SDS011;8723;51.502;6.918;2022-10-18T03:49:04;8.90;;;4.83;;
17214;SDS011;8723;51.502;6.918;2022-10-18T03:51:31;7.60;;;5.00;;
17214;SDS011;8723;51.502;6.918;2022-10-18T03:53:59;7.63;;;5.27;;
17214;SDS011;8723;51.502;6.918;2022-10-18T03:56:26;7.90;;;5.30;;
17214;SDS011;8723;51.502;6.918;2022-10-18T03:58:53;9.45;;;5.03;;
17214;SDS011;8723;51.502;6.918;2022-10-18T04:01:22;8.95;;;5.32;;
17214;SDS011;8723;51.502;6.918;2022-10-18T04:03:49;6.93;;;5.25;;
17214;SDS011;8723;51.502;6.918;2022-10-18T04:06:16;9.07;;;5.90;;
17214;SDS011;8723;51.502;6.918;2022-10-18T04:08:43;6.93;;;5.63;;
17214;SDS011;8723;51.502;6.918;2022-10-18T04:11:11;9.87;;;6.13;;
17214;SDS011;8723;51.502;6.918;2022-10-18T04:13:38;8.68;;;6.40;;
17214;SDS011;8723;51.502;6.918;2022-10-18T04:16:05;8.25;;;6.38;;
17214;SDS011;8723;51.502;6.918;2022-10-18T04:18:33;9.07;;;6.13;;
17214;SDS011;8723;51.502;6.918;2022-10-18T04:21:00;9.13;;;6.20;;
17214;SDS011;8723;51.502;6.918;2022-10-18T04:23:28;14.93;;;6.90;;
17214;SDS011;8723;51.502;6.918;2022-10-18T04:25:55;10.93;;;6.70;;
17214;SDS011;8723;51.502;6.918;2022-10-18T04:28:22;9.53;;;6.47;;
17214;SDS011;8723;51.502;6.918;2022-10-18T04:30:49;13.68;;;6.65;;
17214;SDS011;8723;51.502;6.918;2022-10-18T04:33:16;9.65;;;6.18;;
17214;SDS011;8723;51.502;6.918;2022-10-18T04:35:45;6.82;;;6.10;;
17214;SDS011;8723;51.502;6.918;2022-10-18T04:38:12;9.32;;;6.22;;
17214;SDS011;8723;51.502;6.918;2022-10-18T04:40:40;9.93;;;6.32;;
17214;SDS011;8723;51.502;6.918;2022-10-18T04:43:07;10.57;;;6.50;;
17214;SDS011;8723;51.502;6.918;2022-10-18T04:45:34;8.10;;;6.00;;
17214;SDS011;8723;51.502;6.918;2022-10-18T04:48:01;13.55;;;8.30;;
17214;SDS011;8723;51.502;6.918;2022-10-18T04:50:28;12.40;;;8.43;;
17214;SDS011;8723;51.502;6.918;2022-10-18T04:52:56;16.70;;;9.00;;
17214;SDS011;8723;51.502;6.918;2022-10-18T04:55:24;10.57;;;8.82;;
17214;SDS011;8723;51.502;6.918;2022-10-18T04:57:51;15.05;;;9.77;;
17214;SDS011;8723;51.502;6.918;2022-10-18T05:00:18;24.02;;;10.23;;
17214;SDS011;8723;51.502;6.918;2022-10-18T05:02:45;15.98;;;9.85;;
17214;SDS011;8723;51.502;6.918;2022-10-18T05:05:13;14.15;;;9.25;;
17214;SDS011;8723;51.502;6.918;2022-10-18T05:07:40;17.02;;;10.13;;
17214;SDS011;8723;51.502;6.918;2022-10-18T05:10:09;16.80;;;10.35;;
17214;SDS011;8723;51.502;6.918;2022-10-18T05:12:36;13.85;;;10.25;;
17214;SDS011;8723;51.502;6.918;2022-10-18T05:15:03;18.73;;;11.40;;
17214;SDS011;8723;51.502;6.918;2022-10-18T05:17:30;16.92;;;10.13;;
17214;SDS011;8723;51.502;6.918;2022-10-18T05:19:57;16.40;;;9.82;;
17214;SDS011;8723;51.502;6.918;2022-10-18T05:22:25;13.43;;;10.32;;
17214;SDS011;8723;51.502;6.918;2022-10-18T05:24:52;13.00;;;9.40;;
17214;SDS011;8723;51.502;6.918;2022-10-18T05:27:20;17.25;;;9.93;;
17214;SDS011;8723;51.502;6.918;2022-10-18T05:29:47;13.80;;;9.98;;
17214;SDS011;8723;51.502;6.918;2022-10-18T05:32:14;12.10;;;8.82;;
17214;SDS011;8723;51.502;6.918;2022-10-18T05:34:41;14.45;;;9.23;;
17214;SDS011;8723;51.502;6.918;2022-10-18T05:37:09;11.88;;;9.38;;
17214;SDS011;8723;51.502;6.918;2022-10-18T05:39:36;18.10;;;9.30;;
17214;SDS011;8723;51.502;6.918;2022-10-18T05:42:03;14.07;;;9.33;;
17214;SDS011;8723;51.502;6.918;2022-10-18T05:44:31;14.95;;;9.93;;
17214;SDS011;8723;51.502;6.918;2022-10-18T05:46:58;14.00;;;10.25;;
17214;SDS011;8723;51.502;6.918;2022-10-18T05:49:26;14.65;;;10.40;;
17214;SDS011;8723;51.502;6.918;2022-10-18T05:51:53;13.38;;;10.18;;
17214;SDS011;8723;51.502;6.918;2022-10-18T05:54:20;14.70;;;11.48;;
17214;SDS011;8723;51.502;6.918;2022-10-18T05:56:47;14.93;;;11.00;;
17214;SDS011;8723;51.502;6.918;2022-10-18T05:59:14;15.07;;;11.13;;
17214;SDS011;8723;51.502;6.918;2022-10-18T06:01:42;15.87;;;11.43;;
17214;SDS011;8723;51.502;6.918;2022-10-18T06:04:10;19.52;;;10.98;;
17214;SDS011;8723;51.502;6.918;2022-10-18T06:06:37;16.20;;;11.25;;
17214;SDS011;8723;51.502;6.918;2022-10-18T06:09:05;16.95;;;11.70;;
17214;SDS011;8723;51.502;6.918;2022-10-18T06:11:32;17.13;;;12.55;;
17214;SDS011;8723;51.502;6.918;2022-10-18T06:14:00;18.63;;;13.30;;
17214;SDS011;8723;51.502;6.918;2022-10-18T06:16:28;23.83;;;14.80;;
17214;SDS011;8723;51.502;6.918;2022-10-18T06:18:56;25.95;;;16.23;;
17214;SDS011;8723;51.502;6.918;2022-10-18T06:21:24;20.80;;;13.90;;
17214;SDS011;8723;51.502;6.918;2022-10-18T06:23:52;24.58;;;14.35;;
17214;SDS011;8723;51.502;6.918;2022-10-18T06:26:20;20.42;;;13.93;;
17214;SDS011;8723;51.502;6.918;2022-10-18T06:28:47;18.25;;;13.55;;
17214;SDS011;8723;51.502;6.918;2022-10-18T06:31:14;23.00;;;14.52;;
17214;SDS011;8723;51.502;6.918;2022-10-18T06:33:41;27.30;;;16.67;;
17214;SDS011;8723;51.502;6.918;2022-10-18T06:36:12;30.27;;;17.48;;
17214;SDS011;8723;51.502;6.918;2022-10-18T06:38:39;26.48;;;16.80;;
17214;SDS011;8723;51.502;6.918;2022-10-18T06:41:06;25.02;;;15.82;;
17214;SDS011;8723;51.502;6.918;2022-10-18T06:43:33;29.20;;;17.70;;
17214;SDS011;8723;51.502;6.918;2022-10-18T06:46:01;30.85;;;18.45;;
17214;SDS011;8723;51.502;6.918;2022-10-18T06:48:29;30.95;;;19.33;;
17214;SDS011;8723;51.502;6.918;2022-10-18T06:50:56;30.75;;;18.80;;
17214;SDS011;8723;51.502;6.918;2022-10-18T06:53:25;33.45;;;19.05;;
17214;SDS011;8723;51.502;6.918;2022-10-18T06:55:57;36.70;;;19.48;;
17214;SDS011;8723;51.502;6.918;2022-10-18T06:58:24;40.63;;;20.90;;
17214;SDS011;8723;51.502;6.918;2022-10-18T07:00:51;32.58;;;19.98;;
17214;SDS011;8723;51.502;6.918;2022-10-18T07:03:18;36.15;;;18.85;;
17214;SDS011;8723;51.502;6.918;2022-10-18T07:05:45;36.70;;;20.95;;
17214;SDS011;8723;51.502;6.918;2022-10-18T07:08:13;27.95;;;18.77;;
17214;SDS011;8723;51.502;6.918;2022-10-18T07:10:41;32.47;;;20.58;;
17214;SDS011;8723;51.502;6.918;2022-10-18T07:13:08;31.25;;;20.00;;
17214;SDS011;8723;51.502;6.918;2022-10-18T07:15:35;28.30;;;19.55;;
17214;SDS011;8723;51.502;6.918;2022-10-18T07:18:03;35.92;;;22.77;;
17214;SDS011;8723;51.502;6.918;2022-10-18T07:20:30;38.60;;;22.65;;
17214;SDS011;8723;51.502;6.918;2022-10-18T07:22:57;37.95;;;22.75;;
17214;SDS011;8723;51.502;6.918;2022-10-18T07:25:24;37.30;;;22.80;;
17214;SDS011;8723;51.502;6.918;2022-10-18T07:27:53;34.13;;;21.55;;
17214;SDS011;8723;51.502;6.918;2022-10-18T07:30:20;38.33;;;21.17;;
17214;SDS011;8723;51.502;6.918;2022-10-18T07:32:47;37.65;;;23.98;;
17214;SDS011;8723;51.502;6.918;2022-10-18T07:35:16;41.83;;;25.00;;
17214;SDS011;8723;51.502;6.918;2022-10-18T07:37:43;18.60;;;11.38;;
17214;SDS011;8723;51.502;6.918;2022-10-18T07:40:11;45.55;;;28.75;;
17214;SDS011;8723;51.502;6.918;2022-10-18T07:42:38;35.70;;;24.73;;
17214;SDS011;8723;51.502;6.918;2022-10-18T07:45:07;35.72;;;23.20;;
17214;SDS011;8723;51.502;6.918;2022-10-18T07:47:36;36.10;;;24.35;;
17214;SDS011;8723;51.502;6.918;2022-10-18T07:50:03;24.98;;;16.65;;
17214;SDS011;8723;51.502;6.918;2022-10-18T07:52:31;46.60;;;28.30;;
17214;SDS011;8723;51.502;6.918;2022-10-18T07:54:58;38.55;;;26.10;;
17214;SDS011;8723;51.502;6.918;2022-10-18T07:57:25;45.23;;;29.00;;
17214;SDS011;8723;51.502;6.918;2022-10-18T07:59:52;44.20;;;29.17;;
17214;SDS011;8723;51.502;6.918;2022-10-18T08:02:22;30.48;;;21.48;;
17214;SDS011;8723;51.502;6.918;2022-10-18T08:04:49;48.20;;;30.35;;
17214;SDS011;8723;51.502;6.918;2022-10-18T08:07:17;37.72;;;28.42;;
17214;SDS011;8723;51.502;6.918;2022-10-18T08:09:44;34.33;;;26.58;;
17214;SDS011;8723;51.502;6.918;2022-10-18T08:12:11;40.28;;;29.35;;
17214;SDS011;8723;51.502;6.918;2022-10-18T08:14:39;33.60;;;23.70;;
17214;SDS011;8723;51.502;6.918;2022-10-18T08:17:06;46.85;;;32.08;;
17214;SDS011;8723;51.502;6.918;2022-10-18T08:19:35;36.50;;;27.90;;
17214;SDS011;8723;51.502;6.918;2022-10-18T08:22:02;33.47;;;26.30;;
17214;SDS011;8723;51.502;6.918;2022-10-18T08:24:29;30.40;;;22.90;;
17214;SDS011;8723;51.502;6.918;2022-10-18T08:26:56;36.80;;;27.95;;
17214;SDS011;8723;51.502;6.918;2022-10-18T08:29:23;36.45;;;27.00;;
17214;SDS011;8723;51.502;6.918;2022-10-18T08:31:51;38.80;;;28.42;;
17214;SDS011;8723;51.502;6.918;2022-10-18T08:34:18;39.42;;;28.90;;
17214;SDS011;8723;51.502;6.918;2022-10-18T08:36:46;39.70;;;30.40;;
17214;SDS011;8723;51.502;6.918;2022-10-18T08:39:13;35.55;;;25.40;;
17214;SDS011;8723;51.502;6.918;2022-10-18T08:41:44;32.63;;;24.65;;
17214;SDS011;8723;51.502;6.918;2022-10-18T08:44:13;37.95;;;26.48;;
17214;SDS011;8723;51.502;6.918;2022-10-18T08:46:44;43.60;;;30.53;;
17214;SDS011;8723;51.502;6.918;2022-10-18T08:49:15;49.33;;;31.50;;
17214;SDS011;8723;51.502;6.918;2022-10-18T08:51:45;45.35;;;32.22;;
17214;SDS011;8723;51.502;6.918;2022-10-18T08:54:14;47.17;;;31.80;;
17214;SDS011;8723;51.502;6.918;2022-10-18T08:56:44;43.10;;;30.58;;
17214;SDS011;8723;51.502;6.918;2022-10-18T08:59:12;43.30;;;30.23;;
17214;SDS011;8723;51.502;6.918;2022-10-18T09:01:41;40.80;;;29.88;;
17214;SDS011;8723;51.502;6.918;2022-10-18T09:04:25;35.88;;;26.33;;
17214;SDS011;8723;51.502;6.918;2022-10-18T09:06:57;30.27;;;23.27;;
17214;SDS011;8723;51.502;6.918;2022-10-18T09:09:30;36.05;;;24.73;;
17214;SDS011;8723;51.502;6.918;2022-10-18T09:12:02;41.05;;;26.95;;
17214;SDS011;8723;51.502;6.918;2022-10-18T09:14:41;44.13;;;30.73;;
17214;SDS011;8723;51.502;6.918;2022-10-18T09:17:16;30.33;;;22.95;;
17214;SDS011;8723;51.502;6.918;2022-10-18T09:19:49;28.83;;;20.23;;
17214;SDS011;8723;51.502;6.918;2022-10-18T09:22:23;35.85;;;26.17;;
17214;SDS011;8723;51.502;6.918;2022-10-18T09:24:55;40.60;;;27.80;;
17214;SDS011;8723;51.502;6.918;2022-10-18T09:27:26;41.95;;;30.15;;
17214;SDS011;8723;51.502;6.918;2022-10-18T09:29:57;43.30;;;30.10;;
17214;SDS011;8723;51.502;6.918;2022-10-18T09:32:31;40.70;;;29.50;;
17214;SDS011;8723;51.502;6.918;2022-10-18T09:35:00;42.28;;;29.40;;
17214;SDS011;8723;51.502;6.918;2022-10-18T09:37:31;40.35;;;28.05;;
17214;SDS011;8723;51.502;6.918;2022-10-18T09:40:02;35.72;;;26.92;;
17214;SDS011;8723;51.502;6.918;2022-10-18T09:42:30;31.88;;;23.08;;
17214;SDS011;8723;51.502;6.918;2022-10-18T09:45:01;40.95;;;29.02;;
17214;SDS011;8723;51.502;6.918;2022-10-18T09:47:31;37.92;;;26.13;;
17214;SDS011;8723;51.502;6.918;2022-10-18T09:50:00;41.47;;;29.23;;
17214;SDS011;8723;51.502;6.918;2022-10-18T09:52:30;26.27;;;20.20;;
17214;SDS011;8723;51.502;6.918;2022-10-18T09:54:58;22.73;;;16.88;;
17214;SDS011;8723;51.502;6.918;2022-10-18T09:57:30;27.75;;;18.52;;
17214;SDS011;8723;51.502;6.918;2022-10-18T09:59:58;28.85;;;21.00;;
17214;SDS011;8723;51.502;6.918;2022-10-18T10:02:27;33.95;;;22.35;;
17214;SDS011;8723;51.502;6.918;2022-10-18T10:04:54;34.30;;;23.10;;
17214;SDS011;8723;51.502;6.918;2022-10-18T10:07:23;23.33;;;17.65;;
17214;SDS011;8723;51.502;6.918;2022-10-18T10:09:54;26.60;;;18.80;;
17214;SDS011;8723;51.502;6.918;2022-10-18T10:12:26;28.25;;;19.83;;
17214;SDS011;8723;51.502;6.918;2022-10-18T10:14:54;23.92;;;18.73;;
17214;SDS011;8723;51.502;6.918;2022-10-18T10:17:32;21.10;;;15.27;;
17214;SDS011;8723;51.502;6.918;2022-10-18T10:20:00;26.38;;;19.55;;
17214;SDS011;8723;51.502;6.918;2022-10-18T10:22:31;29.33;;;21.93;;
17214;SDS011;8723;51.502;6.918;2022-10-18T10:25:00;11.53;;;10.33;;
17214;SDS011;8723;51.502;6.918;2022-10-18T10:27:28;27.65;;;19.85;;
17214;SDS011;8723;51.502;6.918;2022-10-18T10:29:57;23.60;;;17.15;;
17214;SDS011;8723;51.502;6.918;2022-10-18T10:32:26;28.00;;;19.27;;
17214;SDS011;8723;51.502;6.918;2022-10-18T10:34:53;15.27;;;12.43;;
17214;SDS011;8723;51.502;6.918;2022-10-18T10:37:25;22.55;;;17.15;;
17214;SDS011;8723;51.502;6.918;2022-10-18T10:40:05;20.73;;;16.50;;
17214;SDS011;8723;51.502;6.918;2022-10-18T10:42:35;19.80;;;15.98;;
17214;SDS011;8723;51.502;6.918;2022-10-18T10:45:05;20.23;;;15.77;;
17214;SDS011;8723;51.502;6.918;2022-10-18T10:47:32;19.92;;;13.98;;
17214;SDS011;8723;51.502;6.918;2022-10-18T10:50:07;18.83;;;14.20;;
17214;SDS011;8723;51.502;6.918;2022-10-18T10:52:35;14.60;;;10.85;;
17214;SDS011;8723;51.502;6.918;2022-10-18T10:55:04;18.35;;;13.20;;
17214;SDS011;8723;51.502;6.918;2022-10-18T10:57:32;15.07;;;10.73;;
17214;SDS011;8723;51.502;6.918;2022-10-18T10:59:59;7.73;;;6.93;;
17214;SDS011;8723;51.502;6.918;2022-10-18T11:02:30;8.30;;;6.50;;
17214;SDS011;8723;51.502;6.918;2022-10-18T11:05:14;6.35;;;5.60;;
17214;SDS011;8723;51.502;6.918;2022-10-18T11:07:42;8.23;;;6.30;;
17214;SDS011;8723;51.502;6.918;2022-10-18T11:10:11;10.65;;;7.47;;
17214;SDS011;8723;51.502;6.918;2022-10-18T11:12:39;10.10;;;6.88;;
17214;SDS011;8723;51.502;6.918;2022-10-18T11:15:15;16.00;;;9.73;;
17214;SDS011;8723;51.502;6.918;2022-10-18T11:17:45;11.05;;;8.27;;
17214;SDS011;8723;51.502;6.918;2022-10-18T11:20:15;11.88;;;7.65;;
17214;SDS011;8723;51.502;6.918;2022-10-18T11:22:49;12.10;;;7.45;;
17214;SDS011;8723;51.502;6.918;2022-10-18T11:25:22;9.57;;;6.27;;
17214;SDS011;8723;51.502;6.918;2022-10-18T11:27:52;13.15;;;6.40;;
17214;SDS011;8723;51.502;6.918;2022-10-18T11:30:27;10.43;;;6.13;;
17214;SDS011;8723;51.502;6.918;2022-10-18T11:33:00;8.93;;;5.25;;
17214;SDS011;8723;51.502;6.918;2022-10-18T11:35:33;8.70;;;5.63;;
17214;SDS011;8723;51.502;6.918;2022-10-18T11:38:05;9.27;;;5.10;;
17214;SDS011;8723;51.502;6.918;2022-10-18T11:40:44;11.70;;;6.93;;
17214;SDS011;8723;51.502;6.918;2022-10-18T11:43:15;6.17;;;5.23;;
17214;SDS011;8723;51.502;6.918;2022-10-18T11:45:48;11.53;;;7.00;;
17214;SDS011;8723;51.502;6.918;2022-10-18T11:48:25;10.97;;;6.50;;
17214;SDS011;8723;51.502;6.918;2022-10-18T11:50:57;9.15;;;5.82;;
17214;SDS011;8723;51.502;6.918;2022-10-18T11:53:28;12.20;;;7.95;;
17214;SDS011;8723;51.502;6.918;2022-10-18T11:55:59;6.07;;;4.67;;
17214;SDS011;8723;51.502;6.918;2022-10-18T11:58:33;9.18;;;6.30;;
17214;SDS011;8723;51.502;6.918;2022-10-18T12:01:05;8.00;;;5.35;;
17214;SDS011;8723;51.502;6.918;2022-10-18T12:03:39;10.53;;;6.30;;
17214;SDS011;8723;51.502;6.918;2022-10-18T12:06:12;13.10;;;9.15;;
17214;SDS011;8723;51.502;6.918;2022-10-18T12:08:41;12.63;;;8.43;;
17214;SDS011;8723;51.502;6.918;2022-10-18T12:11:12;10.60;;;7.78;;
17214;SDS011;8723;51.502;6.918;2022-10-18T12:13:42;9.07;;;7.70;;
17214;SDS011;8723;51.502;6.918;2022-10-18T12:16:10;9.23;;;7.45;;
17214;SDS011;8723;51.502;6.918;2022-10-18T12:18:44;9.77;;;6.55;;
17214;SDS011;8723;51.502;6.918;2022-10-18T12:21:12;7.30;;;6.07;;
17214;SDS011;8723;51.502;6.918;2022-10-18T12:23:41;10.00;;;5.93;;
17214;SDS011;8723;51.502;6.918;2022-10-18T12:26:11;10.73;;;6.30;;
17214;SDS011;8723;51.502;6.918;2022-10-18T12:28:42;9.65;;;6.45;;
17214;SDS011;8723;51.502;6.918;2022-10-18T12:31:16;10.00;;;6.90;;
17214;SDS011;8723;51.502;6.918;2022-10-18T12:33:47;9.57;;;6.53;;
17214;SDS011;8723;51.502;6.918;2022-10-18T12:36:18;9.15;;;6.10;;
17214;SDS011;8723;51.502;6.918;2022-10-18T12:38:49;6.30;;;4.70;;
17214;SDS011;8723;51.502;6.918;2022-10-18T12:41:18;8.80;;;5.93;;
17214;SDS011;8723;51.502;6.918;2022-10-18T12:43:49;10.35;;;6.40;;
17214;SDS011;8723;51.502;6.918;2022-10-18T12:46:17;9.45;;;5.78;;
17214;SDS011;8723;51.502;6.918;2022-10-18T12:48:47;9.10;;;5.10;;
17214;SDS011;8723;51.502;6.918;2022-10-18T12:51:17;11.23;;;5.30;;
17214;SDS011;8723;51.502;6.918;2022-10-18T12:53:45;14.63;;;6.35;;
17214;SDS011;8723;51.502;6.918;2022-10-18T12:56:36;10.70;;;5.03;;
17214;SDS011;8723;51.502;6.918;2022-10-18T13:02:07;11.07;;;4.90;;
17214;SDS011;8723;51.502;6.918;2022-10-18T13:04:36;7.85;;;3.90;;
17214;SDS011;8723;51.502;6.918;2022-10-18T13:07:11;7.70;;;4.18;;
17214;SDS011;8723;51.502;6.918;2022-10-18T13:10:30;7.35;;;3.80;;
17214;SDS011;8723;51.502;6.918;2022-10-18T13:12:45;11.60;;;4.40;;
17214;SDS011;8723;51.502;6.918;2022-10-18T13:15:19;9.23;;;4.82;;
17214;SDS011;8723;51.502;6.918;2022-10-18T13:17:50;7.93;;;4.20;;
17214;SDS011;8723;51.502;6.918;2022-10-18T13:20:19;11.07;;;5.30;;
17214;SDS011;8723;51.502;6.918;2022-10-18T13:22:55;9.05;;;5.20;;
17214;SDS011;8723;51.502;6.918;2022-10-18T13:25:26;11.50;;;5.70;;
17214;SDS011;8723;51.502;6.918;2022-10-18T13:27:58;8.77;;;4.90;;
17214;SDS011;8723;51.502;6.918;2022-10-18T13:30:32;8.55;;;4.63;;
17214;SDS011;8723;51.502;6.918;2022-10-18T13:33:07;9.20;;;4.65;;
17214;SDS011;8723;51.502;6.918;2022-10-18T13:35:51;9.38;;;4.57;;
17214;SDS011;8723;51.502;6.918;2022-10-18T13:38:39;9.05;;;4.60;;
17214;SDS011;8723;51.502;6.918;2022-10-18T13:41:07;12.07;;;5.07;;
17214;SDS011;8723;51.502;6.918;2022-10-18T13:46:22;10.82;;;3.47;;
17214;SDS011;8723;51.502;6.918;2022-10-18T13:48:50;11.32;;;3.75;;
17214;SDS011;8723;51.502;6.918;2022-10-18T13:51:41;10.10;;;3.25;;
17214;SDS011;8723;51.502;6.918;2022-10-18T13:54:15;8.48;;;3.28;;
17214;SDS011;8723;51.502;6.918;2022-10-18T13:56:55;8.05;;;3.03;;
17214;SDS011;8723;51.502;6.918;2022-10-18T13:59:31;8.18;;;2.80;;
17214;SDS011;8723;51.502;6.918;2022-10-18T14:02:11;15.00;;;3.50;;
17214;SDS011;8723;51.502;6.918;2022-10-18T14:04:50;9.70;;;3.10;;
17214;SDS011;8723;51.502;6.918;2022-10-18T14:07:25;7.15;;;2.78;;
17214;SDS011;8723;51.502;6.918;2022-10-18T14:09:53;7.65;;;2.80;;
17214;SDS011;8723;51.502;6.918;2022-10-18T14:12:24;9.88;;;2.85;;
17214;SDS011;8723;51.502;6.918;2022-10-18T14:14:54;8.07;;;3.10;;
17214;SDS011;8723;51.502;6.918;2022-10-18T14:17:25;13.23;;;3.53;;
17214;SDS011;8723;51.502;6.918;2022-10-18T14:19:55;6.70;;;2.85;;
17214;SDS011;8723;51.502;6.918;2022-10-18T14:22:25;6.97;;;2.90;;
17214;SDS011;8723;51.502;6.918;2022-10-18T14:24:55;8.18;;;2.63;;
17214;SDS011;8723;51.502;6.918;2022-10-18T14:27:23;7.53;;;2.65;;
17214;SDS011;8723;51.502;6.918;2022-10-18T14:30:05;5.75;;;2.30;;
17214;SDS011;8723;51.502;6.918;2022-10-18T14:32:35;5.57;;;2.53;;
17214;SDS011;8723;51.502;6.918;2022-10-18T14:35:02;6.35;;;2.35;;
17214;SDS011;8723;51.502;6.918;2022-10-18T14:37:32;5.83;;;2.80;;
17214;SDS011;8723;51.502;6.918;2022-10-18T14:39:59;7.90;;;3.30;;
17214;SDS011;8723;51.502;6.918;2022-10-18T14:42:26;7.07;;;2.67;;
17214;SDS011;8723;51.502;6.918;2022-10-18T14:44:54;8.40;;;2.45;;
17214;SDS011;8723;51.502;6.918;2022-10-18T14:47:21;8.55;;;2.85;;
17214;SDS011;8723;51.502;6.918;2022-10-18T14:49:50;10.43;;;3.28;;
17214;SDS011;8723;51.502;6.918;2022-10-18T14:52:19;8.10;;;2.92;;
17214;SDS011;8723;51.502;6.918;2022-10-18T14:54:46;8.85;;;2.80;;
17214;SDS011;8723;51.502;6.918;2022-10-18T14:57:15;9.73;;;2.47;;
17214;SDS011;8723;51.502;6.918;2022-10-18T14:59:44;7.28;;;2.50;;
17214;SDS011;8723;51.502;6.918;2022-10-18T15:02:16;11.32;;;2.83;;
17214;SDS011;8723;51.502;6.918;2022-10-18T15:04:45;10.27;;;2.50;;
17214;SDS011;8723;51.502;6.918;2022-10-18T15:07:15;8.27;;;2.40;;
17214;SDS011;8723;51.502;6.918;2022-10-18T15:09:42;7.07;;;2.30;;
17214;SDS011;8723;51.502;6.918;2022-10-18T15:12:11;6.27;;;2.10;;